createdAt,value
2018-11-11T00:00:50.317Z,32.77
2018-11-11T00:03:25.998Z,33.40
2018-11-11T00:06:02.027Z,31.97
2018-11-11T00:08:39.418Z,30.87
2018-11-11T00:11:15.303Z,31.70
2018-11-11T00:13:50.939Z,31.63
2018-11-11T00:16:27.284Z,30.30
2018-11-11T00:19:02.979Z,31.80
2018-11-11T00:21:39.031Z,32.13
2018-11-11T00:24:15.268Z,30.83
2018-11-11T00:26:51.082Z,31.35
2018-11-11T00:29:26.785Z,31.20
2018-11-11T00:32:02.658Z,30.83
2018-11-11T00:34:38.661Z,31.33
2018-11-11T00:37:15.092Z,30.17
2018-11-11T00:39:51.277Z,31.13
2018-11-11T00:42:27.279Z,30.53
2018-11-11T00:45:03.266Z,31.60
2018-11-11T00:47:38.975Z,30.77
2018-11-11T00:50:15.714Z,31.30
2018-11-11T00:52:51.419Z,31.00
2018-11-11T00:55:27.433Z,31.20
2018-11-11T00:58:02.845Z,31.37
2018-11-11T01:00:39.604Z,30.00
2018-11-11T01:03:15.090Z,29.42
2018-11-11T01:05:50.862Z,30.10
2018-11-11T01:08:26.657Z,28.20
2018-11-11T01:11:02.659Z,27.00
2018-11-11T01:13:38.634Z,25.35
2018-11-11T01:16:14.480Z,28.05
2018-11-11T01:18:49.994Z,25.90
2018-11-11T01:21:26.097Z,24.77
2018-11-11T01:24:02.057Z,23.67
2018-11-11T01:26:38.438Z,23.85
2018-11-11T01:29:14.091Z,25.55
2018-11-11T01:31:50.218Z,21.93
2018-11-11T01:34:26.043Z,25.20
2018-11-11T01:37:02.095Z,23.93
2018-11-11T01:39:37.828Z,21.83
2018-11-11T01:43:39.879Z,19.50
2018-11-11T01:46:16.085Z,23.23
2018-11-11T01:48:51.710Z,20.95
2018-11-11T01:51:27.860Z,20.23
2018-11-11T01:54:03.477Z,20.65
2018-11-11T01:56:39.099Z,21.03
2018-11-11T01:59:14.857Z,22.87
2018-11-11T02:01:50.291Z,20.15
2018-11-11T02:04:26.429Z,19.48
2018-11-11T02:07:02.314Z,18.42
2018-11-11T02:09:38.462Z,21.40
2018-11-11T02:12:14.085Z,21.25
2018-11-11T02:14:50.222Z,25.30
2018-11-11T02:17:26.223Z,26.20
2018-11-11T02:20:03.280Z,26.00
2018-11-11T02:22:39.010Z,25.75
2018-11-11T02:25:14.856Z,25.37
2018-11-11T02:27:50.916Z,24.98
2018-11-11T02:30:26.910Z,28.55
2018-11-11T02:33:03.567Z,28.23
2018-11-11T02:35:39.927Z,24.73
2018-11-11T02:38:16.283Z,26.43
2018-11-11T02:40:51.927Z,27.07
2018-11-11T02:43:28.267Z,24.20
2018-11-11T02:46:58.883Z,25.20
2018-11-11T02:49:34.855Z,24.20
2018-11-11T02:52:11.105Z,23.30
2018-11-11T02:54:46.877Z,24.15
2018-11-11T02:57:23.073Z,22.50
2018-11-11T02:59:59.102Z,21.60
2018-11-11T03:02:35.269Z,23.60
2018-11-11T03:05:12.385Z,22.83
2018-11-11T03:07:48.370Z,19.32
2018-11-11T03:10:24.458Z,19.50
2018-11-11T03:13:00.826Z,19.80
2018-11-11T03:15:38.089Z,20.68
2018-11-11T03:18:13.989Z,18.65
2018-11-11T03:20:50.054Z,20.13
2018-11-11T03:23:26.070Z,19.33
2018-11-11T03:26:02.002Z,20.50
2018-11-11T03:28:38.062Z,20.67
2018-11-11T03:31:14.008Z,21.93
2018-11-11T03:33:50.001Z,22.22
2018-11-11T03:36:25.737Z,21.62
2018-11-11T03:39:02.086Z,23.90
2018-11-11T03:41:38.000Z,23.47
2018-11-11T03:44:13.939Z,26.33
2018-11-11T03:46:49.998Z,27.62
2018-11-11T03:49:25.648Z,28.53
2018-11-11T03:52:01.454Z,28.47
2018-11-11T03:54:37.485Z,27.63
2018-11-11T03:57:13.976Z,28.30
2018-11-11T03:59:50.089Z,28.43
2018-11-11T04:02:25.634Z,30.27
2018-11-11T04:05:02.060Z,30.30
2018-11-11T04:07:37.847Z,28.10
2018-11-11T04:10:18.538Z,28.53
2018-11-11T04:14:03.088Z,116.80
2018-11-11T04:16:49.043Z,117.82
2018-11-11T04:19:36.770Z,122.45
2018-11-11T04:26:08.328Z,115.40
2018-11-11T04:28:44.925Z,104.90
2018-11-11T04:31:25.352Z,107.35
2018-11-11T04:34:52.245Z,101.93
2018-11-11T04:37:35.348Z,96.00
2018-11-11T04:54:14.692Z,99.37
2018-11-11T04:56:55.260Z,88.90
2018-11-11T05:15:30.331Z,14.73
2018-11-11T05:18:06.273Z,14.93
2018-11-11T05:20:42.002Z,15.33
2018-11-11T05:26:01.267Z,15.43
2018-11-11T05:28:37.855Z,14.65
2018-11-11T05:31:14.320Z,15.88
2018-11-11T05:33:50.482Z,15.00
2018-11-11T05:36:26.794Z,16.65
2018-11-11T05:39:03.066Z,16.20
2018-11-11T05:41:39.070Z,15.95
2018-11-11T05:44:15.046Z,15.23
2018-11-11T05:46:51.078Z,15.63
2018-11-11T05:49:27.097Z,16.87
2018-11-11T05:52:03.100Z,16.40
2018-11-11T05:54:38.903Z,17.30
2018-11-11T05:57:15.095Z,18.20
2018-11-11T05:59:51.295Z,18.90
2018-11-11T06:02:27.482Z,18.82
2018-11-11T06:05:03.438Z,20.00
2018-11-11T06:07:40.009Z,20.03
2018-11-11T06:10:16.926Z,18.37
2018-11-11T06:12:52.878Z,20.57
2018-11-11T06:15:28.905Z,20.60
2018-11-11T06:18:05.217Z,19.90
2018-11-11T06:20:41.488Z,18.80
2018-11-11T06:25:31.834Z,20.30
2018-11-11T06:28:07.455Z,20.93
2018-11-11T06:30:43.114Z,21.27
2018-11-11T06:33:19.116Z,21.03
2018-11-11T06:35:55.081Z,20.50
2018-11-11T06:38:31.097Z,19.40
2018-11-11T06:41:07.097Z,20.23
2018-11-11T06:43:42.865Z,19.47
2018-11-11T06:46:18.806Z,18.97
2018-11-11T06:48:55.230Z,19.45
2018-11-11T06:51:31.290Z,20.10
2018-11-11T06:54:07.325Z,19.43
2018-11-11T06:56:43.025Z,19.37
2018-11-11T06:59:19.318Z,18.73
2018-11-11T07:04:03.139Z,23.03
2018-11-11T07:06:39.170Z,19.80
2018-11-11T07:09:15.310Z,20.90
2018-11-11T07:11:51.529Z,18.53
2018-11-11T07:14:27.957Z,20.52
2018-11-11T07:17:04.317Z,21.57
2018-11-11T07:19:40.447Z,23.55
2018-11-11T07:22:16.469Z,23.03
2018-11-11T07:24:52.629Z,22.20
2018-11-11T07:27:28.314Z,21.03
2018-11-11T07:30:05.061Z,21.80
2018-11-11T07:32:41.057Z,21.42
2018-11-11T07:35:17.211Z,24.43
2018-11-11T07:37:53.465Z,22.70
2018-11-11T07:40:29.802Z,33.80
2018-11-11T07:43:06.086Z,36.40
2018-11-11T07:45:42.261Z,27.02
2018-11-11T07:48:18.360Z,35.20
2018-11-11T07:50:54.870Z,40.38
2018-11-11T07:53:31.049Z,39.90
2018-11-11T07:56:07.001Z,37.03
2018-11-11T07:58:43.238Z,40.52
2018-11-11T08:01:19.994Z,41.85
2018-11-11T08:03:55.995Z,40.45
2018-11-11T08:06:32.091Z,40.80
2018-11-11T08:09:09.085Z,40.92
2018-11-11T08:12:01.476Z,43.58
2018-11-11T08:14:37.307Z,39.80
2018-11-11T08:17:13.473Z,35.98
2018-11-11T08:19:50.050Z,24.95
2018-11-11T08:22:26.087Z,30.90
2018-11-11T08:25:02.205Z,34.00
2018-11-11T08:27:37.989Z,30.63
2018-11-11T08:30:14.837Z,42.43
2018-11-11T08:32:51.518Z,38.50
2018-11-11T08:35:27.754Z,41.13
2018-11-11T08:38:03.827Z,43.33
2018-11-11T08:40:39.899Z,44.42
2018-11-11T08:43:16.263Z,43.90
2018-11-11T08:45:52.253Z,42.90
2018-11-11T08:48:28.271Z,44.50
2018-11-11T08:51:04.318Z,44.15
2018-11-11T08:53:40.263Z,39.60
2018-11-11T08:56:16.435Z,32.55
2018-11-11T09:02:40.432Z,36.80
2018-11-11T09:05:16.961Z,34.90
2018-11-11T09:07:53.260Z,38.38
2018-11-11T09:10:29.702Z,34.50
2018-11-11T09:13:05.961Z,39.30
2018-11-11T09:15:42.079Z,41.07
2018-11-11T09:18:18.073Z,33.17
2018-11-11T09:20:53.992Z,41.70
2018-11-11T09:23:30.068Z,36.55
2018-11-11T09:26:06.087Z,44.58
2018-11-11T09:28:42.372Z,43.80
2018-11-11T09:31:18.793Z,43.05
2018-11-11T09:33:55.282Z,45.00
2018-11-11T09:36:31.505Z,42.73
2018-11-11T09:39:10.521Z,43.70
2018-11-11T09:41:46.886Z,44.07
2018-11-11T09:44:23.085Z,44.35
2018-11-11T09:46:59.305Z,43.70
2018-11-11T09:49:35.111Z,46.30
2018-11-11T09:52:11.078Z,44.77
2018-11-11T09:54:47.285Z,45.43
2018-11-11T09:57:23.635Z,43.65
2018-11-11T09:59:59.853Z,42.00
2018-11-11T10:02:36.382Z,40.30
2018-11-11T10:05:47.415Z,40.25
2018-11-11T10:08:28.926Z,42.00
2018-11-11T10:11:09.481Z,44.50
2018-11-11T10:14:05.095Z,41.10
2018-11-11T10:16:46.211Z,43.42
2018-11-11T10:19:31.441Z,43.75
2018-11-11T10:22:15.053Z,44.30
2018-11-11T10:25:57.223Z,46.30
2018-11-11T10:28:40.101Z,44.60
2018-11-11T10:31:20.440Z,46.50
2018-11-11T10:34:00.363Z,46.73
2018-11-11T10:36:40.256Z,43.80
2018-11-11T10:39:21.308Z,43.17
2018-11-11T10:43:05.712Z,43.92
2018-11-11T10:45:45.549Z,43.98
2018-11-11T10:48:28.983Z,44.07
2018-11-11T10:51:06.442Z,43.90
2018-11-11T10:53:42.849Z,45.20
2018-11-11T10:56:19.033Z,46.60
2018-11-11T10:58:54.917Z,43.17
2018-11-11T11:02:40.553Z,45.35
2018-11-11T11:05:16.296Z,44.40
2018-11-11T11:07:52.431Z,48.30
2018-11-11T11:10:28.486Z,49.93
2018-11-11T11:13:04.490Z,49.10
2018-11-11T11:15:40.861Z,49.55
2018-11-11T11:18:16.977Z,49.05
2018-11-11T11:20:53.083Z,49.20
2018-11-11T11:23:29.451Z,49.73
2018-11-11T11:26:05.503Z,49.85
2018-11-11T11:28:41.761Z,48.70
2018-11-11T11:31:17.765Z,49.75
2018-11-11T11:33:54.066Z,49.97
2018-11-11T11:36:30.088Z,51.10
2018-11-11T11:39:06.961Z,50.20
2018-11-11T11:41:42.969Z,49.57
2018-11-11T11:44:19.017Z,49.55
2018-11-11T11:46:55.054Z,49.57
2018-11-11T11:49:31.066Z,49.33
2018-11-11T11:52:07.315Z,47.70
2018-11-11T11:54:43.271Z,49.10
2018-11-11T11:57:19.260Z,52.47
2018-11-11T12:02:36.261Z,50.23
2018-11-11T12:05:13.210Z,51.68
2018-11-11T12:07:49.077Z,54.00
2018-11-11T12:10:25.049Z,54.37
2018-11-11T12:13:01.538Z,54.93
2018-11-11T12:15:37.265Z,52.77
2018-11-11T12:18:13.252Z,53.08
2018-11-11T12:20:49.105Z,52.48
2018-11-11T12:23:25.090Z,56.27
2018-11-11T12:26:02.080Z,52.15
2018-11-11T12:28:38.904Z,51.00
2018-11-11T12:31:14.912Z,51.95
2018-11-11T12:33:51.006Z,53.47
2018-11-11T12:36:27.260Z,53.80
2018-11-11T12:39:03.129Z,51.80
2018-11-11T12:41:39.462Z,53.02
2018-11-11T12:44:15.705Z,53.20
2018-11-11T12:46:51.895Z,55.05
2018-11-11T12:49:28.270Z,53.95
2018-11-11T12:52:04.253Z,54.27
2018-11-11T12:54:40.313Z,54.53
2018-11-11T12:57:16.260Z,54.23
2018-11-11T12:59:52.278Z,56.08
2018-11-11T13:02:28.260Z,55.17
2018-11-11T13:05:04.450Z,54.98
2018-11-11T13:07:40.313Z,52.00
2018-11-11T13:10:17.069Z,55.17
2018-11-11T13:12:53.777Z,55.05
2018-11-11T13:15:29.751Z,52.30
2018-11-11T13:18:05.993Z,54.58
2018-11-11T13:20:42.077Z,52.85
2018-11-11T13:23:18.414Z,54.50
2018-11-11T13:25:54.272Z,57.55
2018-11-11T13:28:30.553Z,53.10
2018-11-11T13:31:06.793Z,52.98
2018-11-11T13:33:42.790Z,51.58
2018-11-11T13:36:19.001Z,52.33
2018-11-11T13:38:55.038Z,54.53
2018-11-11T13:41:30.737Z,53.17
2018-11-11T13:44:06.557Z,52.43
2018-11-11T13:46:42.978Z,53.15
2018-11-11T13:49:19.046Z,52.90
2018-11-11T13:51:55.118Z,54.80
2018-11-11T13:54:31.469Z,52.83
2018-11-11T13:57:07.806Z,54.42
2018-11-11T13:59:44.086Z,53.93
2018-11-11T14:02:20.409Z,53.15
2018-11-11T14:04:57.083Z,52.95
2018-11-11T14:07:33.081Z,52.57
2018-11-11T14:10:10.065Z,53.70
2018-11-11T14:12:46.257Z,50.83
2018-11-11T14:15:25.824Z,50.23
2018-11-11T14:18:02.176Z,48.28
2018-11-11T14:20:38.762Z,50.33
2018-11-11T14:23:15.294Z,49.47
2018-11-11T14:25:51.525Z,49.27
2018-11-11T14:28:28.257Z,50.63
2018-11-11T14:31:04.258Z,48.70
2018-11-11T14:33:40.258Z,48.58
2018-11-11T14:36:16.254Z,48.43
2018-11-11T14:38:52.262Z,50.27
2018-11-11T14:43:18.839Z,49.47
2018-11-11T14:45:54.956Z,50.50
2018-11-11T14:48:31.042Z,49.63
2018-11-11T14:51:07.010Z,49.53
2018-11-11T14:53:43.042Z,47.70
2018-11-11T14:56:18.912Z,47.50
2018-11-11T14:58:55.140Z,49.30
2018-11-11T15:01:31.270Z,48.60
2018-11-11T15:04:07.536Z,47.65
2018-11-11T15:06:43.913Z,46.13
2018-11-11T15:09:20.008Z,47.63
2018-11-11T15:11:56.058Z,45.45
2018-11-11T15:14:32.362Z,47.43
2018-11-11T15:17:08.254Z,46.47
2018-11-11T15:19:44.351Z,45.65
2018-11-11T15:22:20.898Z,42.40
2018-11-11T15:24:56.919Z,43.57
2018-11-11T15:27:32.922Z,41.83
2018-11-11T15:30:09.451Z,42.50
2018-11-11T15:32:46.497Z,42.48
2018-11-11T15:35:22.865Z,43.95
2018-11-11T15:37:59.108Z,44.88
2018-11-11T15:40:36.364Z,42.17
2018-11-11T15:43:12.923Z,42.60
2018-11-11T15:45:49.038Z,41.55
2018-11-11T15:48:25.088Z,41.50
2018-11-11T15:51:01.468Z,40.65
2018-11-11T15:53:37.981Z,41.80
2018-11-11T15:56:14.082Z,41.20
2018-11-11T15:58:50.086Z,41.50
2018-11-11T16:01:26.085Z,39.63
2018-11-11T16:04:02.092Z,40.97
2018-11-11T16:06:38.090Z,37.23
2018-11-11T16:09:14.926Z,38.63
2018-11-11T16:11:50.988Z,37.05
2018-11-11T16:14:26.947Z,35.03
2018-11-11T16:17:03.205Z,36.50
2018-11-11T16:19:39.475Z,36.10
2018-11-11T16:22:15.793Z,34.53
2018-11-11T16:24:52.259Z,34.48
2018-11-11T16:27:28.258Z,34.65
2018-11-11T16:30:05.048Z,32.80
2018-11-11T16:32:41.851Z,33.58
2018-11-11T16:35:19.207Z,31.70
2018-11-11T16:37:55.065Z,31.73
2018-11-11T16:40:33.096Z,32.33
2018-11-11T16:43:09.257Z,31.87
2018-11-11T16:45:45.271Z,27.70
2018-11-11T16:48:21.417Z,27.20
2018-11-11T16:50:57.309Z,28.50
2018-11-11T16:53:33.300Z,25.60
2018-11-11T16:56:09.753Z,25.10
2018-11-11T16:58:45.880Z,25.37
2018-11-11T17:01:21.833Z,25.77
2018-11-11T17:03:58.252Z,24.90
2018-11-11T17:06:35.023Z,23.40
2018-11-11T17:09:15.422Z,21.82
2018-11-11T17:11:52.077Z,24.15
2018-11-11T17:14:28.257Z,20.10
2018-11-11T17:17:04.307Z,18.00
2018-11-11T17:19:40.395Z,16.93
2018-11-11T17:22:16.579Z,14.68
2018-11-11T17:24:52.980Z,14.63
2018-11-11T17:27:29.205Z,14.05
2018-11-11T17:30:06.161Z,14.30
2018-11-11T17:33:42.404Z,6.50
2018-11-11T17:36:18.812Z,4.50
2018-11-11T17:38:54.615Z,4.25
2018-11-11T17:41:30.596Z,6.07
2018-11-11T17:44:06.670Z,6.10
2018-11-11T17:46:42.454Z,7.23
2018-11-11T17:49:18.721Z,4.75
2018-11-11T17:51:54.589Z,4.85
2018-11-11T17:54:30.074Z,4.47
2018-11-11T17:57:05.646Z,4.37
2018-11-11T17:59:41.766Z,7.25
2018-11-11T18:02:17.862Z,4.53
2018-11-11T18:04:55.626Z,6.33
2018-11-11T18:07:31.609Z,4.70
2018-11-11T18:10:07.332Z,4.80
2018-11-11T18:12:44.009Z,5.35
2018-11-11T18:15:21.277Z,5.33
2018-11-11T18:17:56.986Z,5.17
2018-11-11T18:20:34.086Z,5.17
2018-11-11T18:23:10.116Z,5.78
2018-11-11T18:25:46.613Z,6.33
2018-11-11T18:28:22.348Z,5.58
2018-11-11T18:30:58.179Z,5.40
2018-11-11T18:33:34.293Z,5.80
2018-11-11T18:36:10.624Z,5.55
2018-11-11T18:38:46.263Z,6.30
2018-11-11T18:41:22.610Z,5.72
2018-11-11T18:43:58.598Z,5.30
2018-11-11T18:46:34.197Z,5.10
2018-11-11T18:49:10.281Z,5.60
2018-11-11T18:51:45.906Z,5.55
2018-11-11T18:54:22.282Z,5.47
2018-11-11T18:56:57.955Z,5.60
2018-11-11T18:59:33.811Z,5.80
2018-11-11T19:02:09.757Z,4.83
2018-11-11T19:04:46.292Z,4.70
2018-11-11T19:07:22.262Z,5.10
2018-11-11T19:12:50.304Z,4.60
2018-11-11T19:15:26.267Z,4.75
2018-11-11T19:18:02.072Z,4.60
2018-11-11T19:20:38.002Z,4.85
2018-11-11T19:23:13.925Z,4.35
2018-11-11T19:25:49.845Z,4.43
2018-11-11T19:28:25.624Z,4.20
2018-11-11T19:31:02.061Z,4.75
2018-11-11T19:33:37.908Z,4.35
2018-11-11T19:43:08.488Z,4.20
2018-11-11T19:45:44.050Z,3.90
2018-11-11T19:48:19.905Z,3.80
2018-11-11T19:50:55.653Z,3.90
2018-11-11T19:54:00.304Z,3.87
2018-11-11T19:56:35.800Z,3.73
2018-11-11T19:59:12.099Z,5.42
2018-11-11T20:01:47.818Z,3.95
2018-11-11T20:04:23.509Z,4.67
2018-11-11T20:06:59.293Z,8.70
2018-11-11T20:09:34.947Z,6.78
2018-11-11T20:12:11.096Z,3.60
2018-11-11T20:14:47.473Z,5.60
2018-11-11T20:17:23.365Z,3.80
2018-11-11T20:19:59.728Z,3.08
2018-11-11T20:22:36.361Z,3.98
2018-11-11T20:25:13.953Z,3.22
2018-11-11T20:28:48.088Z,5.35
2018-11-11T20:31:24.605Z,3.70
2018-11-11T20:34:01.296Z,3.05
2018-11-11T20:36:37.452Z,3.20
2018-11-11T20:40:50.170Z,11.90
2018-11-11T20:43:26.817Z,12.43
2018-11-11T20:46:05.227Z,11.30
2018-11-11T20:48:41.294Z,10.55
2018-11-11T20:51:17.492Z,11.30
2018-11-11T20:53:53.447Z,10.90
2018-11-11T20:56:29.908Z,12.00
2018-11-11T20:59:45.147Z,10.60
2018-11-11T21:02:21.340Z,13.15
2018-11-11T21:04:57.250Z,12.88
2018-11-11T21:07:33.521Z,10.70
2018-11-11T21:10:10.913Z,10.83
2018-11-11T21:53:37.293Z,11.10
2018-11-11T21:58:49.204Z,116.85
2018-11-11T22:01:26.849Z,41.37
2018-11-11T22:04:04.600Z,23.92
2018-11-11T22:06:41.311Z,17.03
2018-11-11T22:09:20.998Z,18.60
2018-11-11T22:12:01.130Z,16.95
2018-11-11T22:14:37.881Z,18.70
2018-11-11T22:17:20.051Z,43.10
2018-11-11T22:22:51.948Z,17.60
2018-11-11T22:25:29.284Z,20.48
2018-11-11T22:28:07.380Z,24.02
2018-11-11T22:30:44.264Z,27.50
2018-11-11T22:33:21.358Z,24.70
2018-11-11T22:35:58.213Z,29.07
2018-11-11T22:41:12.107Z,22.25
2018-11-11T22:43:49.568Z,25.40
2018-11-11T22:46:28.885Z,24.90
2018-11-11T22:49:06.689Z,56.18
2018-11-11T22:51:44.463Z,26.68
2018-11-11T22:54:20.941Z,42.62
2018-11-11T22:56:58.199Z,42.48
2018-11-11T22:59:36.343Z,93.33
2018-11-11T23:02:13.323Z,46.08
2018-11-11T23:04:50.786Z,46.70
2018-11-11T23:07:28.462Z,49.48
2018-11-11T23:10:07.884Z,50.28
2018-11-11T23:12:44.504Z,49.88
2018-11-11T23:15:23.626Z,52.98
2018-11-11T23:17:59.272Z,50.25
2018-11-11T23:23:11.237Z,53.05
2018-11-11T23:25:49.313Z,52.60
2018-11-11T23:28:26.979Z,82.17
2018-11-11T23:31:05.287Z,55.35
2018-11-11T23:33:45.924Z,54.80
2018-11-11T23:36:23.066Z,55.55
2018-11-11T23:38:59.355Z,56.75
2018-11-11T23:41:36.006Z,54.63
2018-11-11T23:44:16.219Z,51.65
2018-11-11T23:46:53.908Z,50.30
2018-11-11T23:49:33.503Z,138.90
2018-11-11T23:52:12.036Z,52.30
2018-11-11T23:54:49.139Z,46.28
2018-11-11T23:57:26.138Z,48.02
